createdAt,value
2018-08-22T00:00:24.252Z,19.40
2018-08-22T00:02:52.515Z,19.40
2018-08-22T00:05:20.824Z,19.40
2018-08-22T00:07:49.022Z,19.40
2018-08-22T00:10:17.336Z,19.40
2018-08-22T00:12:45.626Z,19.40
2018-08-22T00:15:13.945Z,19.40
2018-08-22T00:17:42.124Z,19.30
2018-08-22T00:20:10.443Z,19.30
2018-08-22T00:22:38.628Z,19.40
2018-08-22T00:25:06.859Z,19.40
2018-08-22T00:27:35.070Z,19.40
2018-08-22T00:30:03.442Z,19.40
2018-08-22T00:32:31.635Z,19.40
2018-08-22T00:34:59.824Z,19.40
2018-08-22T00:37:28.017Z,19.30
2018-08-22T00:39:56.203Z,19.40
2018-08-22T00:42:24.437Z,19.40
2018-08-22T00:44:52.612Z,19.40
2018-08-22T00:47:20.808Z,19.40
2018-08-22T00:49:49.115Z,19.30
2018-08-22T00:52:17.374Z,19.30
2018-08-22T00:54:45.935Z,19.20
2018-08-22T00:57:14.162Z,19.20
2018-08-22T00:59:42.357Z,19.20
2018-08-22T01:02:10.584Z,19.20
2018-08-22T01:04:38.872Z,19.20
2018-08-22T01:07:07.250Z,19.20
2018-08-22T01:09:35.483Z,19.20
2018-08-22T01:12:03.713Z,19.10
2018-08-22T01:14:31.910Z,19.10
2018-08-22T01:17:00.110Z,19.10
2018-08-22T01:19:28.303Z,19.10
2018-08-22T01:21:56.558Z,19.10
2018-08-22T01:24:24.776Z,19.00
2018-08-22T01:26:53.012Z,19.00
2018-08-22T01:29:21.237Z,18.90
2018-08-22T01:31:49.479Z,18.90
2018-08-22T01:34:17.677Z,18.90
2018-08-22T01:36:45.908Z,18.90
2018-08-22T01:39:14.134Z,18.80
2018-08-22T01:41:42.327Z,18.80
2018-08-22T01:44:10.691Z,18.70
2018-08-22T01:46:38.940Z,18.70
2018-08-22T01:49:07.173Z,18.70
2018-08-22T01:51:35.365Z,18.60
2018-08-22T01:54:03.606Z,18.70
2018-08-22T01:56:31.982Z,18.70
2018-08-22T01:59:00.176Z,18.70
2018-08-22T02:01:28.430Z,18.70
2018-08-22T02:03:56.676Z,18.70
2018-08-22T02:06:24.975Z,18.70
2018-08-22T02:08:53.228Z,18.70
2018-08-22T02:11:21.430Z,18.70
2018-08-22T02:13:49.670Z,18.70
2018-08-22T02:16:18.006Z,18.80
2018-08-22T02:18:46.234Z,18.80
2018-08-22T02:21:14.448Z,18.80
2018-08-22T02:23:42.675Z,18.80
2018-08-22T02:26:10.897Z,18.80
2018-08-22T02:28:39.149Z,18.80
2018-08-22T02:31:07.448Z,18.80
2018-08-22T02:33:35.660Z,18.70
2018-08-22T02:36:03.871Z,18.70
2018-08-22T02:38:32.180Z,18.60
2018-08-22T02:41:00.388Z,18.60
2018-08-22T02:43:28.578Z,18.60
2018-08-22T02:45:56.819Z,18.50
2018-08-22T02:48:25.044Z,18.50
2018-08-22T02:50:53.212Z,18.50
2018-08-22T02:53:21.452Z,18.40
2018-08-22T02:55:49.985Z,18.40
2018-08-22T02:58:18.160Z,18.40
2018-08-22T03:00:46.436Z,18.40
2018-08-22T03:03:14.660Z,18.40
2018-08-22T03:05:42.870Z,18.40
2018-08-22T03:08:11.070Z,18.30
2018-08-22T03:10:39.322Z,18.30
2018-08-22T03:13:07.524Z,18.30
2018-08-22T03:15:35.789Z,18.30
2018-08-22T03:18:03.996Z,18.30
2018-08-22T03:20:32.179Z,18.30
2018-08-22T03:23:00.436Z,18.20
2018-08-22T03:25:28.695Z,18.20
2018-08-22T03:27:56.915Z,18.10
2018-08-22T03:30:25.156Z,18.10
2018-08-22T03:32:53.408Z,18.10
2018-08-22T03:35:21.686Z,18.00
2018-08-22T03:37:50.088Z,18.00
2018-08-22T03:40:18.960Z,18.00
2018-08-22T03:42:47.180Z,18.00
2018-08-22T03:45:15.418Z,17.90
2018-08-22T03:47:43.612Z,17.90
2018-08-22T03:50:11.808Z,17.80
2018-08-22T03:52:40.833Z,17.80
2018-08-22T03:55:09.037Z,17.80
2018-08-22T03:57:37.454Z,17.70
2018-08-22T04:00:05.733Z,17.60
2018-08-22T04:02:34.072Z,17.60
2018-08-22T04:05:02.356Z,17.60
2018-08-22T04:07:30.640Z,17.50
2018-08-22T04:09:58.897Z,17.50
2018-08-22T04:12:27.917Z,17.50
2018-08-22T04:14:56.235Z,17.40
2018-08-22T04:17:40.648Z,17.40
2018-08-22T04:20:09.372Z,17.40
2018-08-22T04:22:40.272Z,17.50
2018-08-22T04:25:09.093Z,17.40
2018-08-22T04:27:37.319Z,17.40
2018-08-22T04:30:05.672Z,17.50
2018-08-22T04:32:33.938Z,17.40
2018-08-22T04:35:02.168Z,17.40
2018-08-22T04:37:30.438Z,17.40
2018-08-22T04:39:58.727Z,17.40
2018-08-22T04:42:26.909Z,17.40
2018-08-22T04:44:55.155Z,17.50
2018-08-22T04:47:23.390Z,17.50
2018-08-22T04:49:51.608Z,17.50
2018-08-22T04:52:19.808Z,17.50
2018-08-22T04:54:48.059Z,17.60
2018-08-22T04:57:16.243Z,17.60
2018-08-22T04:59:44.524Z,17.70
2018-08-22T05:02:12.809Z,17.70
2018-08-22T05:04:41.092Z,17.80
2018-08-22T05:07:09.315Z,17.80
2018-08-22T05:09:37.525Z,17.80
2018-08-22T05:12:05.732Z,17.90
2018-08-22T05:14:34.015Z,17.90
2018-08-22T05:17:02.268Z,18.00
2018-08-22T05:19:30.496Z,18.00
2018-08-22T05:21:58.715Z,18.00
2018-08-22T05:24:27.591Z,18.00
2018-08-22T05:26:55.780Z,18.10
2018-08-22T05:29:24.160Z,18.10
2018-08-22T05:31:52.418Z,18.20
2018-08-22T05:34:20.600Z,18.20
2018-08-22T05:36:48.986Z,18.20
2018-08-22T05:39:17.248Z,18.30
2018-08-22T05:41:45.447Z,18.30
2018-08-22T05:44:13.631Z,18.40
2018-08-22T05:46:41.852Z,18.40
2018-08-22T05:49:10.123Z,18.40
2018-08-22T05:51:38.335Z,18.50
2018-08-22T05:54:06.717Z,18.60
2018-08-22T05:56:34.887Z,18.60
2018-08-22T05:59:03.084Z,18.70
2018-08-22T06:01:31.469Z,18.80
2018-08-22T06:03:59.736Z,18.80
2018-08-22T06:06:28.037Z,18.90
2018-08-22T06:08:56.243Z,18.90
2018-08-22T06:11:24.516Z,18.90
2018-08-22T06:13:52.733Z,18.90
2018-08-22T06:16:20.921Z,19.00
2018-08-22T06:18:49.229Z,19.00
2018-08-22T06:21:17.450Z,19.00
2018-08-22T06:23:45.617Z,19.00
2018-08-22T06:26:13.820Z,19.00
2018-08-22T06:28:42.071Z,19.00
2018-08-22T06:31:10.257Z,19.20
2018-08-22T06:33:38.508Z,19.30
2018-08-22T06:36:06.748Z,19.40
2018-08-22T06:38:34.948Z,19.60
2018-08-22T06:41:03.151Z,19.80
2018-08-22T06:43:31.360Z,19.90
2018-08-22T06:46:00.539Z,20.00
2018-08-22T06:48:28.784Z,20.10
2018-08-22T06:50:56.976Z,20.20
2018-08-22T06:53:25.328Z,20.40
2018-08-22T06:55:53.547Z,20.40
2018-08-22T06:58:21.789Z,20.50
2018-08-22T07:00:50.090Z,20.70
2018-08-22T07:03:18.400Z,20.80
2018-08-22T07:05:46.659Z,20.90
2018-08-22T07:08:15.013Z,21.00
2018-08-22T07:10:43.190Z,21.10
2018-08-22T07:13:11.452Z,21.30
2018-08-22T07:15:39.700Z,21.40
2018-08-22T07:18:07.900Z,21.40
2018-08-22T07:20:36.096Z,21.40
2018-08-22T07:23:04.304Z,21.40
2018-08-22T07:25:32.566Z,21.40
2018-08-22T07:28:00.976Z,21.50
2018-08-22T07:30:29.205Z,21.60
2018-08-22T07:32:57.460Z,21.70
2018-08-22T07:35:25.669Z,21.80
2018-08-22T07:37:53.933Z,22.00
2018-08-22T07:40:22.128Z,22.20
2018-08-22T07:42:50.557Z,22.30
2018-08-22T07:45:18.866Z,22.40
2018-08-22T07:47:47.056Z,22.60
2018-08-22T07:50:15.380Z,22.70
2018-08-22T07:52:49.105Z,22.90
2018-08-22T07:55:17.308Z,23.00
2018-08-22T07:57:45.653Z,23.20
2018-08-22T08:00:13.912Z,23.30
2018-08-22T08:02:42.112Z,23.50
2018-08-22T08:05:10.408Z,23.60
2018-08-22T08:07:38.660Z,23.90
2018-08-22T08:10:06.905Z,24.10
2018-08-22T08:12:39.896Z,24.10
2018-08-22T08:15:08.642Z,24.20
2018-08-22T08:17:36.831Z,24.40
2018-08-22T08:20:05.428Z,24.50
2018-08-22T08:22:33.673Z,24.70
2018-08-22T08:25:01.881Z,24.80
2018-08-22T08:27:30.174Z,25.00
2018-08-22T08:29:58.359Z,25.10
2018-08-22T08:32:26.628Z,25.10
2018-08-22T08:34:54.905Z,25.20
2018-08-22T08:37:23.127Z,25.20
2018-08-22T08:39:51.404Z,25.30
2018-08-22T08:42:19.605Z,25.50
2018-08-22T08:44:47.843Z,25.60
2018-08-22T08:47:16.085Z,25.80
2018-08-22T08:49:44.357Z,25.80
2018-08-22T08:52:12.589Z,25.70
2018-08-22T08:54:40.859Z,25.70
2018-08-22T08:57:09.085Z,26.00
2018-08-22T08:59:37.235Z,26.30
2018-08-22T09:02:05.468Z,26.40
2018-08-22T09:04:33.668Z,26.30
2018-08-22T09:07:02.190Z,26.30
2018-08-22T09:09:30.383Z,26.40
2018-08-22T09:11:59.688Z,26.50
2018-08-22T09:14:28.205Z,26.50
2018-08-22T09:16:57.044Z,26.50
2018-08-22T09:19:25.438Z,26.70
2018-08-22T09:21:53.657Z,26.80
2018-08-22T09:24:21.883Z,27.00
2018-08-22T09:26:50.108Z,27.00
2018-08-22T09:29:18.304Z,27.00
2018-08-22T09:31:46.524Z,27.20
2018-08-22T09:34:14.773Z,27.30
2018-08-22T09:36:43.066Z,27.50
2018-08-22T09:39:12.561Z,27.40
2018-08-22T09:41:41.102Z,27.40
2018-08-22T09:44:09.378Z,27.50
2018-08-22T09:46:38.672Z,27.60
2018-08-22T09:49:06.863Z,27.70
2018-08-22T09:51:35.074Z,27.80
2018-08-22T09:54:03.503Z,27.80
2018-08-22T09:56:31.723Z,27.90
2018-08-22T09:59:00.085Z,27.90
2018-08-22T10:01:33.604Z,28.00
2018-08-22T10:04:02.356Z,28.20
2018-08-22T10:06:33.969Z,28.10
2018-08-22T10:09:03.331Z,28.10
2018-08-22T10:11:31.593Z,28.10
2018-08-22T10:13:59.817Z,28.10
2018-08-22T10:16:28.903Z,28.20
2018-08-22T10:18:57.280Z,28.20
2018-08-22T10:21:26.175Z,28.20
2018-08-22T10:23:54.432Z,28.40
2018-08-22T10:26:22.788Z,28.60
2018-08-22T10:28:51.140Z,28.80
2018-08-22T10:31:19.353Z,28.90
2018-08-22T10:33:47.630Z,29.00
2018-08-22T10:36:15.824Z,29.00
2018-08-22T10:38:44.092Z,29.10
2018-08-22T10:41:12.300Z,29.30
2018-08-22T10:43:40.505Z,29.30
2018-08-22T10:46:09.485Z,29.20
2018-08-22T10:48:37.699Z,29.10
2018-08-22T10:51:06.416Z,29.20
2018-08-22T10:53:34.660Z,29.20
2018-08-22T10:56:02.852Z,29.20
2018-08-22T10:58:31.198Z,29.40
2018-08-22T11:01:00.020Z,29.30
2018-08-22T11:03:28.316Z,29.40
2018-08-22T11:05:56.539Z,29.50
2018-08-22T11:08:25.049Z,29.50
2018-08-22T11:10:53.310Z,29.40
2018-08-22T11:13:21.574Z,29.50
2018-08-22T11:15:49.919Z,29.50
2018-08-22T11:18:18.056Z,29.40
2018-08-22T11:20:52.305Z,29.30
2018-08-22T11:23:32.342Z,29.30
2018-08-22T11:26:12.318Z,29.40
2018-08-22T11:28:51.940Z,29.60
2018-08-22T11:31:31.549Z,29.80
2018-08-22T11:34:10.967Z,29.80
2018-08-22T11:36:38.151Z,29.70
2018-08-22T11:39:07.271Z,29.90
2018-08-22T11:41:35.472Z,29.90
2018-08-22T11:44:03.696Z,30.10
2018-08-22T11:46:31.969Z,30.30
2018-08-22T11:49:00.172Z,30.30
2018-08-22T11:51:28.405Z,30.20
2018-08-22T11:53:56.614Z,30.10
2018-08-22T11:56:24.891Z,29.90
2018-08-22T11:58:53.168Z,29.90
2018-08-22T12:01:21.387Z,30.00
2018-08-22T12:03:49.867Z,29.80
2018-08-22T12:06:18.096Z,29.90
2018-08-22T12:08:46.304Z,30.10
2018-08-22T12:11:14.545Z,30.20
2018-08-22T12:13:42.736Z,30.10
2018-08-22T12:16:11.020Z,30.10
2018-08-22T12:18:39.168Z,30.20
2018-08-22T12:21:07.448Z,30.30
2018-08-22T12:23:35.712Z,30.40
2018-08-22T12:26:04.001Z,30.50
2018-08-22T12:28:32.268Z,30.40
2018-08-22T12:31:00.490Z,30.60
2018-08-22T12:33:28.636Z,30.60
2018-08-22T12:35:56.922Z,30.80
2018-08-22T12:38:25.302Z,30.80
2018-08-22T12:40:53.552Z,30.60
2018-08-22T12:43:21.775Z,30.50
2018-08-22T12:45:50.072Z,30.70
2018-08-22T12:48:18.296Z,30.80
2018-08-22T12:50:46.584Z,30.70
2018-08-22T12:53:14.832Z,30.70
2018-08-22T12:55:43.089Z,30.60
2018-08-22T12:58:11.373Z,30.60
2018-08-22T13:00:39.664Z,30.50
2018-08-22T13:03:07.891Z,30.20
2018-08-22T13:05:36.235Z,30.30
2018-08-22T13:08:04.503Z,30.40
2018-08-22T13:10:32.704Z,30.40
2018-08-22T13:13:00.956Z,30.40
2018-08-22T13:15:29.224Z,30.50
2018-08-22T13:17:57.606Z,30.60
2018-08-22T13:20:25.884Z,30.60
2018-08-22T13:22:54.159Z,30.70
2018-08-22T13:25:22.424Z,30.70
2018-08-22T13:27:50.736Z,30.90
2018-08-22T13:30:19.025Z,30.90
2018-08-22T13:32:47.407Z,30.90
2018-08-22T13:35:15.540Z,31.00
2018-08-22T13:37:43.730Z,31.10
2018-08-22T13:40:12.111Z,31.10
2018-08-22T13:42:40.476Z,31.00
2018-08-22T13:45:08.820Z,30.90
2018-08-22T13:47:37.029Z,31.00
2018-08-22T13:50:05.336Z,31.00
2018-08-22T13:52:33.893Z,31.10
2018-08-22T13:55:02.072Z,31.00
2018-08-22T13:57:30.351Z,31.00
2018-08-22T13:59:58.600Z,31.00
2018-08-22T14:02:26.849Z,31.10
2018-08-22T14:04:55.070Z,31.10
2018-08-22T14:07:23.256Z,31.10
2018-08-22T14:09:51.527Z,30.90
2018-08-22T14:12:19.784Z,31.00
2018-08-22T14:14:47.977Z,31.00
2018-08-22T14:17:16.165Z,31.00
2018-08-22T14:19:44.453Z,30.90
2018-08-22T14:22:12.624Z,30.90
2018-08-22T14:24:40.859Z,30.90
2018-08-22T14:27:09.060Z,30.90
2018-08-22T14:29:37.264Z,30.90
2018-08-22T14:32:05.960Z,30.80
2018-08-22T14:34:34.183Z,30.80
2018-08-22T14:37:02.485Z,30.90
2018-08-22T14:39:30.677Z,30.90
2018-08-22T14:41:58.924Z,30.90
2018-08-22T14:44:27.220Z,30.60
2018-08-22T14:46:55.458Z,30.60
2018-08-22T14:49:23.653Z,30.70
2018-08-22T14:51:51.855Z,30.70
2018-08-22T14:54:20.105Z,30.80
2018-08-22T14:56:48.332Z,30.80
2018-08-22T14:59:16.532Z,30.80
2018-08-22T15:01:44.798Z,30.80
2018-08-22T15:04:13.112Z,30.90
2018-08-22T15:06:41.307Z,30.90
2018-08-22T15:09:17.395Z,30.80
2018-08-22T15:11:45.625Z,30.80
2018-08-22T15:14:13.800Z,30.70
2018-08-22T15:16:42.109Z,30.60
2018-08-22T15:19:10.386Z,30.60
2018-08-22T15:21:38.660Z,30.50
2018-08-22T15:24:06.904Z,30.60
2018-08-22T15:26:35.140Z,30.60
2018-08-22T15:29:03.332Z,30.60
2018-08-22T15:31:31.531Z,30.60
2018-08-22T15:33:59.824Z,30.60
2018-08-22T15:36:28.089Z,30.60
2018-08-22T15:38:56.242Z,30.60
2018-08-22T15:41:24.491Z,30.40
2018-08-22T15:43:52.716Z,30.50
2018-08-22T15:46:20.985Z,30.40
2018-08-22T15:48:49.280Z,30.30
2018-08-22T15:51:17.516Z,30.40
2018-08-22T15:53:56.016Z,30.40
2018-08-22T15:56:24.236Z,30.40
2018-08-22T15:58:52.553Z,30.30
2018-08-22T16:01:20.789Z,30.30
2018-08-22T16:03:49.050Z,30.30
2018-08-22T16:06:17.251Z,30.10
2018-08-22T16:08:45.445Z,30.10
2018-08-22T16:11:13.771Z,30.20
2018-08-22T16:13:42.065Z,30.20
2018-08-22T16:16:10.305Z,30.20
2018-08-22T16:18:38.500Z,30.10
2018-08-22T16:21:07.024Z,29.90
2018-08-22T16:23:35.709Z,29.90
2018-08-22T16:26:04.892Z,29.90
2018-08-22T16:28:45.508Z,29.90
2018-08-22T16:31:13.861Z,29.90
2018-08-22T16:33:41.897Z,29.90
2018-08-22T16:36:14.332Z,29.80
2018-08-22T16:38:42.556Z,29.80
2018-08-22T16:41:11.040Z,29.70
2018-08-22T16:43:41.443Z,29.60
2018-08-22T16:46:12.424Z,29.60
2018-08-22T16:48:41.547Z,29.50
2018-08-22T16:51:09.872Z,29.40
2018-08-22T16:53:38.170Z,29.30
2018-08-22T16:56:06.556Z,29.30
2018-08-22T16:58:34.970Z,29.20
2018-08-22T17:01:03.135Z,29.20
2018-08-22T17:03:31.325Z,29.10
2018-08-22T17:06:04.821Z,29.10
2018-08-22T17:08:33.061Z,29.00
2018-08-22T17:11:05.237Z,28.90
2018-08-22T17:13:51.520Z,28.80
2018-08-22T17:16:20.149Z,28.70
2018-08-22T17:18:48.476Z,28.70
2018-08-22T17:21:19.107Z,28.60
2018-08-22T17:23:47.814Z,28.60
2018-08-22T17:26:19.992Z,28.50
2018-08-22T17:28:52.714Z,28.50
2018-08-22T17:31:22.028Z,28.40
2018-08-22T17:33:56.832Z,28.30
2018-08-22T17:36:25.156Z,28.20
2018-08-22T17:38:54.700Z,28.10
2018-08-22T17:41:24.315Z,28.00
2018-08-22T17:44:00.687Z,27.80
2018-08-22T17:46:31.320Z,27.70
2018-08-22T17:48:59.563Z,27.50
2018-08-22T17:51:27.883Z,27.50
2018-08-22T17:53:56.157Z,27.40
2018-08-22T17:56:25.541Z,27.30
2018-08-22T17:58:54.732Z,27.30
2018-08-22T18:01:23.387Z,27.20
2018-08-22T18:03:53.849Z,27.10
2018-08-22T18:06:22.096Z,27.00
2018-08-22T18:08:50.364Z,26.90
2018-08-22T18:11:18.577Z,26.80
2018-08-22T18:13:46.826Z,26.70
2018-08-22T18:16:15.025Z,26.60
2018-08-22T18:18:43.225Z,26.50
2018-08-22T18:21:11.464Z,26.40
2018-08-22T18:23:55.920Z,26.30
2018-08-22T18:26:24.147Z,26.20
2018-08-22T18:28:52.395Z,26.10
2018-08-22T18:31:20.640Z,26.10
2018-08-22T18:33:57.657Z,26.00
2018-08-22T18:36:26.916Z,25.90
2018-08-22T18:39:04.432Z,25.80
2018-08-22T18:41:32.764Z,25.80
2018-08-22T18:44:01.321Z,25.70
2018-08-22T18:46:29.518Z,25.60
2018-08-22T18:48:57.752Z,25.50
2018-08-22T18:51:26.024Z,25.50
2018-08-22T18:53:54.323Z,25.30
2018-08-22T18:56:22.727Z,25.30
2018-08-22T18:58:51.415Z,25.20
2018-08-22T19:01:19.773Z,25.20
2018-08-22T19:03:47.968Z,25.10
2018-08-22T19:06:16.175Z,25.00
2018-08-22T19:08:44.420Z,25.00
2018-08-22T19:11:12.725Z,24.90
2018-08-22T19:13:40.880Z,24.80
2018-08-22T19:16:10.346Z,24.70
2018-08-22T19:18:38.949Z,24.70
2018-08-22T19:21:08.586Z,24.70
2018-08-22T19:23:36.850Z,24.60
2018-08-22T19:26:06.012Z,24.50
2018-08-22T19:28:49.483Z,24.50
2018-08-22T19:31:17.714Z,24.50
2018-08-22T19:33:45.948Z,24.40
2018-08-22T19:36:14.152Z,24.40
2018-08-22T19:38:42.842Z,24.30
2018-08-22T19:41:22.388Z,24.30
2018-08-22T19:43:50.647Z,24.20
2018-08-22T19:46:19.703Z,24.10
2018-08-22T19:48:47.934Z,24.00
2018-08-22T19:51:16.176Z,24.00
2018-08-22T19:53:56.438Z,23.90
2018-08-22T19:56:25.158Z,23.90
2018-08-22T19:58:53.259Z,23.80
2018-08-22T20:01:21.541Z,23.70
2018-08-22T20:03:52.721Z,23.60
2018-08-22T20:06:21.419Z,23.60
2018-08-22T20:08:52.709Z,23.50
2018-08-22T20:11:21.100Z,23.40
2018-08-22T20:13:52.745Z,23.30
2018-08-22T20:16:21.972Z,23.20
2018-08-22T20:18:55.849Z,23.20
2018-08-22T20:21:31.941Z,23.10
2018-08-22T20:24:00.936Z,23.00
2018-08-22T20:26:29.561Z,23.00
2018-08-22T20:28:59.036Z,22.90
2018-08-22T20:31:27.303Z,22.90
2018-08-22T20:34:08.632Z,22.90
2018-08-22T20:36:36.838Z,22.80
2018-08-22T20:39:08.697Z,22.80
2018-08-22T20:41:37.373Z,22.70
2018-08-22T20:44:07.669Z,22.70
2018-08-22T20:46:35.888Z,22.60
2018-08-22T20:49:04.131Z,22.50
2018-08-22T20:51:32.825Z,22.50
2018-08-22T20:54:07.032Z,22.50
2018-08-22T20:56:35.813Z,22.40
2018-08-22T20:59:04.017Z,22.40
2018-08-22T21:01:32.275Z,22.30
2018-08-22T21:04:01.570Z,22.20
2018-08-22T21:06:29.847Z,22.10
2018-08-22T21:08:59.115Z,22.00
2018-08-22T21:11:27.332Z,22.00
2018-08-22T21:13:55.618Z,21.90
2018-08-22T21:16:23.849Z,21.80
2018-08-22T21:18:52.225Z,21.80
2018-08-22T21:21:23.400Z,21.70
2018-08-22T21:23:51.660Z,21.60
2018-08-22T21:26:34.198Z,21.60
2018-08-22T21:29:02.448Z,21.60
2018-08-22T21:31:30.726Z,21.50
2018-08-22T21:34:01.935Z,21.50
2018-08-22T21:36:30.154Z,21.50
2018-08-22T21:38:58.371Z,21.40
2018-08-22T21:41:26.639Z,21.40
2018-08-22T21:43:54.903Z,21.40
2018-08-22T21:46:23.139Z,21.40
2018-08-22T21:48:51.365Z,21.30
2018-08-22T21:51:19.636Z,21.30
2018-08-22T21:53:47.901Z,21.20
2018-08-22T21:56:16.576Z,21.20
2018-08-22T21:58:44.780Z,21.20
2018-08-22T22:01:13.032Z,21.10
2018-08-22T22:03:41.447Z,21.10
2018-08-22T22:06:09.691Z,21.10
2018-08-22T22:08:43.242Z,21.00
2018-08-22T22:11:11.466Z,21.00
2018-08-22T22:13:39.659Z,20.90
2018-08-22T22:16:08.018Z,20.90
2018-08-22T22:18:36.288Z,20.90
2018-08-22T22:21:12.375Z,20.90
2018-08-22T22:23:45.568Z,20.80
2018-08-22T22:26:14.749Z,20.70
2018-08-22T22:28:43.012Z,20.70
2018-08-22T22:31:13.277Z,20.60
2018-08-22T22:34:03.292Z,20.60
2018-08-22T22:36:32.835Z,20.60
2018-08-22T22:39:01.039Z,20.50
2018-08-22T22:41:30.594Z,20.50
2018-08-22T22:43:58.845Z,20.40
2018-08-22T22:46:27.052Z,20.40
2018-08-22T22:48:55.269Z,20.40
2018-08-22T22:51:23.523Z,20.30
2018-08-22T22:53:51.780Z,20.30
2018-08-22T22:56:20.012Z,20.20
2018-08-22T22:58:48.254Z,20.20
2018-08-22T23:01:16.515Z,20.20
2018-08-22T23:03:44.804Z,20.20
2018-08-22T23:06:13.190Z,20.20
2018-08-22T23:08:41.419Z,20.20
2018-08-22T23:11:09.817Z,20.20
2018-08-22T23:13:38.020Z,20.30
2018-08-22T23:16:06.277Z,20.30
2018-08-22T23:18:34.542Z,20.30
2018-08-22T23:21:02.743Z,20.30
2018-08-22T23:23:37.202Z,20.30
2018-08-22T23:26:18.580Z,20.30
2018-08-22T23:28:46.810Z,20.30
2018-08-22T23:31:16.567Z,20.30
2018-08-22T23:33:44.799Z,20.30
2018-08-22T23:36:13.040Z,20.30
2018-08-22T23:38:41.252Z,20.30
2018-08-22T23:41:09.465Z,20.20
2018-08-22T23:43:43.921Z,20.10
2018-08-22T23:46:13.088Z,20.10
2018-08-22T23:48:41.567Z,20.00
2018-08-22T23:51:11.088Z,20.00
2018-08-22T23:53:44.746Z,20.00
2018-08-22T23:56:21.840Z,19.90
2018-08-22T23:58:50.656Z,19.90
